ADDS METAR Data INFO
IDs: Format: Raw Decoded Include TAF

Data at: 0607 UTC 25 Jun 2018

PANW 250556Z AUTO 23010KT 10SM FEW080 12/06 A2993 RMK AO2 SLP153 T01220056 10167 20122 55000
PANW 250456Z AUTO 24013KT 10SM CLR 14/06 A2993 RMK AO2 SLP151 T01390056
PANW 250356Z AUTO 23013G17KT 10SM OVC055 15/07 A2993 RMK AO2 SLP151 T01500067
PANW 250256Z AUTO 27008KT 10SM BKN049 OVC060 16/06 A2993 RMK AO2 SLP153 T01610056 56014
PANW 250156Z AUTO 26007KT 10SM SCT036 SCT055 OVC070 16/07 A2994 RMK AO2 SLP157 T01560067
PANW 250056Z AUTO 28008KT 10SM SCT043 OVC050 15/08 A2996 RMK AO2 SLP163 T01500083
PANW 242356Z AUTO 28005KT 10SM OVC055 15/09 A2997 RMK AO2 RAE2258 SLP167 P0000 60019 T01500089 10150 20111 58011
PANW 242256Z AUTO 29007KT 10SM -RA OVC050 14/10 A2999 RMK AO2 SLP172 P0005 T01390100
PANW 242156Z AUTO 23008KT 10SM RA SCT049 OVC055 12/09 A3000 RMK AO2 SLP178 P0014 T01170094
PANW 242056Z AUTO 34004KT 10SM -RA SCT025 BKN041 OVC049 13/09 A3001 RMK AO2 RAB23 SLP178 P0000 60000 T01280094 58004
PANW 241956Z AUTO 27003KT 10SM FEW018 SCT047 BKN055 13/08 A3001 RMK AO2 SLP180 T01330083
PANW 241939Z AUTO 00000KT 10SM SCT014 SCT047 OVC055 13/08 A3001 RMK AO2
PANW 241929Z AUTO 26006KT 10SM BKN014 BKN055 OVC070 13/09 A3002 RMK AO2
PANW 241856Z AUTO 20004KT 10SM OVC060 12/09 A3002 RMK AO2 SLP182 T01220089
PANW 241756Z AUTO 20004KT 10SM BKN050 OVC070 11/09 A3002 RMK AO2 SLP183 60000 T01110089 10111 20078 58006
PANW 241656Z AUTO 00000KT 10SM FEW049 BKN060 OVC075 09/08 A3003 RMK AO2 RAB00E12 SLP186 P0000 T00940083
PANW 241556Z AUTO 24004KT 10SM OVC065 08/08 A3003 RMK AO2 SLP187 T00830078
PANW 241456Z AUTO 27006KT 10SM OVC065 09/07 A3004 RMK AO2 SLP188 60000 T00890072 58007
PANW 241356Z AUTO 24006KT 10SM BKN060 08/07 A3004 RMK AO2 RAB01E22 SLP191 P0000 T00780067
PANW 241256Z AUTO 23006KT 10SM OVC046 08/07 A3005 RMK AO2 RAE1158 SLP195 P0000 T00830067
PANW 241156Z AUTO 24005KT 10SM -RA OVC060 08/07 A3006 RMK AO2 RAE07B29 SLP196 P0001 60001 70003 T00830067 10133 20083 51000
PANW 241056Z AUTO 24006KT 10SM -RA OVC055 09/07 A3006 RMK AO2 RAB05 SLP196 P0000 T00890072
PANW 240956Z AUTO 22003KT 10SM BKN065 OVC080 10/08 A3006 RMK AO2 SLP196 T01000078
PANW 240856Z AUTO 25005KT 10SM SCT070 OVC095 11/08 A3006 RMK AO2 SLP195 T01060078 401610061 58005
PANW 240656Z AUTO 21003KT 10SM SCT060 OVC090 12/08 A3007 RMK AO2 SLP201 T01220078
PANW 240556Z AUTO 31004KT 10SM BKN060 13/08 A3007 RMK AO2 SLP201 60001 T01280078 10161 20128 50001
PANW 240456Z AUTO 29005KT 10SM BKN047 BKN070 13/08 A3007 RMK AO2 SLP202 T01280078
PANW 240356Z AUTO 15007KT 10SM OVC044 14/08 A3007 RMK AO2 SLP202 T01390078
PANW 240256Z AUTO 00000KT 10SM BKN075 16/05 A3007 RMK AO2 SLP200 60001 T01610050 57009
PANW 240156Z AUTO 00000KT 10SM OVC070 16/06 A3008 RMK AO2 SLP204 T01560056
PANW 240056Z AUTO VRB03KT 10SM BKN065 15/06 A3009 RMK AO2 RAE29 SLP206 P0001 T01500061
PANW 232356Z AUTO 05005KT 10SM -RA FEW040 OVC055 13/07 A3010 RMK AO2 RAB27 SLP210 P0000 60000 T01330067 10150 20094 58004
PANW 232256Z AUTO 13004KT 10SM BKN060 OVC070 13/07 A3011 RMK AO2 RAB09E38 SLP213 P0000 T01330067
PANW 232156Z AUTO 11003KT 10SM BKN035 OVC065 13/05 A3011 RMK AO2 SLP213 T01330050
PANW 232056Z AUTO 00000KT 10SM OVC034 13/06 A3011 RMK AO2 SLP214 T01280056 58008
PANW 231956Z AUTO 06006KT 10SM BKN031 13/06 A3012 RMK AO2 SLP216 T01330061
PANW 231856Z AUTO 29003KT 10SM FEW060 12/06 A3013 RMK AO2 SLP219 T01220056